sensor_id;sensor_type;location;lat;lon;timestamp;temperature;humidity
7844;DHT22;3967;48.702;9.326;2023-02-03T00:01:00;6.30;99.90
7844;DHT22;3967;48.702;9.326;2023-02-03T00:03:27;6.30;99.90
7844;DHT22;3967;48.702;9.326;2023-02-03T00:05:54;6.40;99.90
7844;DHT22;3967;48.702;9.326;2023-02-03T00:08:21;6.30;99.90
7844;DHT22;3967;48.702;9.326;2023-02-03T00:10:49;6.20;99.90
7844;DHT22;3967;48.702;9.326;2023-02-03T00:13:16;6.30;99.90
7844;DHT22;3967;48.702;9.326;2023-02-03T00:15:43;6.20;99.90
7844;DHT22;3967;48.702;9.326;2023-02-03T00:18:10;6.10;99.90
7844;DHT22;3967;48.702;9.326;2023-02-03T00:20:37;6.20;99.90
7844;DHT22;3967;48.702;9.326;2023-02-03T00:23:08;6.30;99.90
7844;DHT22;3967;48.702;9.326;2023-02-03T00:25:35;6.10;99.90
7844;DHT22;3967;48.702;9.326;2023-02-03T00:28:02;6.10;99.90
7844;DHT22;3967;48.702;9.326;2023-02-03T00:30:29;6.00;99.90
7844;DHT22;3967;48.702;9.326;2023-02-03T00:32:56;6.00;99.90
7844;DHT22;3967;48.702;9.326;2023-02-03T00:35:23;5.90;99.90
7844;DHT22;3967;48.702;9.326;2023-02-03T00:37:51;5.90;99.90
7844;DHT22;3967;48.702;9.326;2023-02-03T00:40:19;5.90;99.90
7844;DHT22;3967;48.702;9.326;2023-02-03T00:42:46;6.00;99.90
7844;DHT22;3967;48.702;9.326;2023-02-03T00:45:13;5.90;99.90
7844;DHT22;3967;48.702;9.326;2023-02-03T00:47:40;5.90;99.90
7844;DHT22;3967;48.702;9.326;2023-02-03T00:50:07;5.90;99.90
7844;DHT22;3967;48.702;9.326;2023-02-03T00:52:34;5.90;99.90
7844;DHT22;3967;48.702;9.326;2023-02-03T00:55:01;6.00;99.90
7844;DHT22;3967;48.702;9.326;2023-02-03T00:57:27;5.90;99.90
7844;DHT22;3967;48.702;9.326;2023-02-03T00:59:54;6.00;99.90
7844;DHT22;3967;48.702;9.326;2023-02-03T01:02:21;6.00;99.90
7844;DHT22;3967;48.702;9.326;2023-02-03T01:04:48;6.00;99.90
7844;DHT22;3967;48.702;9.326;2023-02-03T01:07:15;6.00;99.90
7844;DHT22;3967;48.702;9.326;2023-02-03T01:09:42;6.00;99.90
7844;DHT22;3967;48.702;9.326;2023-02-03T01:12:08;6.00;99.90
7844;DHT22;3967;48.702;9.326;2023-02-03T01:14:35;6.00;99.90
7844;DHT22;3967;48.702;9.326;2023-02-03T01:17:02;5.90;99.90
7844;DHT22;3967;48.702;9.326;2023-02-03T01:19:28;6.00;99.90
7844;DHT22;3967;48.702;9.326;2023-02-03T01:21:55;6.00;99.90
7844;DHT22;3967;48.702;9.326;2023-02-03T01:24:22;6.00;99.90
7844;DHT22;3967;48.702;9.326;2023-02-03T01:26:48;6.00;99.90
7844;DHT22;3967;48.702;9.326;2023-02-03T01:29:15;5.90;99.90
7844;DHT22;3967;48.702;9.326;2023-02-03T01:31:42;6.00;99.90
7844;DHT22;3967;48.702;9.326;2023-02-03T01:34:13;5.90;99.90
7844;DHT22;3967;48.702;9.326;2023-02-03T01:36:41;6.00;99.90
7844;DHT22;3967;48.702;9.326;2023-02-03T01:39:09;5.90;99.90
7844;DHT22;3967;48.702;9.326;2023-02-03T01:41:37;6.00;99.90
7844;DHT22;3967;48.702;9.326;2023-02-03T01:44:58;6.00;99.90
7844;DHT22;3967;48.702;9.326;2023-02-03T01:47:26;6.00;99.90
7844;DHT22;3967;48.702;9.326;2023-02-03T01:50:15;6.20;99.90
7844;DHT22;3967;48.702;9.326;2023-02-03T01:52:46;6.00;99.90
7844;DHT22;3967;48.702;9.326;2023-02-03T01:55:16;5.90;99.90
7844;DHT22;3967;48.702;9.326;2023-02-03T01:58:09;6.00;99.90
7844;DHT22;3967;48.702;9.326;2023-02-03T02:00:37;6.00;99.90
7844;DHT22;3967;48.702;9.326;2023-02-03T02:03:05;5.90;99.90
7844;DHT22;3967;48.702;9.326;2023-02-03T02:08:08;6.00;99.90
7844;DHT22;3967;48.702;9.326;2023-02-03T02:10:36;6.00;99.90
7844;DHT22;3967;48.702;9.326;2023-02-03T02:13:04;6.00;99.90
7844;DHT22;3967;48.702;9.326;2023-02-03T02:15:57;6.00;99.90
7844;DHT22;3967;48.702;9.326;2023-02-03T02:29:35;5.90;99.90
7844;DHT22;3967;48.702;9.326;2023-02-03T02:40:02;5.70;99.90
7844;DHT22;3967;48.702;9.326;2023-02-03T02:43:11;5.70;99.90
7844;DHT22;3967;48.702;9.326;2023-02-03T02:45:58;5.80;99.90
7844;DHT22;3967;48.702;9.326;2023-02-03T02:51:05;5.70;99.90
7844;DHT22;3967;48.702;9.326;2023-02-03T02:53:36;5.60;99.90
7844;DHT22;3967;48.702;9.326;2023-02-03T02:56:06;5.70;99.90
7844;DHT22;3967;48.702;9.326;2023-02-03T02:58:38;5.70;99.90
7844;DHT22;3967;48.702;9.326;2023-02-03T03:01:08;5.60;99.90
7844;DHT22;3967;48.702;9.326;2023-02-03T03:03:37;5.70;99.90
7844;DHT22;3967;48.702;9.326;2023-02-03T03:06:12;5.80;99.90
7844;DHT22;3967;48.702;9.326;2023-02-03T03:08:57;5.80;99.90
7844;DHT22;3967;48.702;9.326;2023-02-03T03:11:28;5.90;99.90
7844;DHT22;3967;48.702;9.326;2023-02-03T03:13:57;5.90;99.90
7844;DHT22;3967;48.702;9.326;2023-02-03T03:16:26;6.00;99.90
7844;DHT22;3967;48.702;9.326;2023-02-03T03:19:01;6.00;99.90
7844;DHT22;3967;48.702;9.326;2023-02-03T03:21:36;5.90;99.90
7844;DHT22;3967;48.702;9.326;2023-02-03T03:24:08;6.00;99.90
7844;DHT22;3967;48.702;9.326;2023-02-03T03:26:43;6.00;99.90
7844;DHT22;3967;48.702;9.326;2023-02-03T03:29:18;6.00;99.90
7844;DHT22;3967;48.702;9.326;2023-02-03T03:31:47;6.10;99.90
7844;DHT22;3967;48.702;9.326;2023-02-03T03:34:15;6.10;99.90
7844;DHT22;3967;48.702;9.326;2023-02-03T03:39:24;6.20;99.90
7844;DHT22;3967;48.702;9.326;2023-02-03T03:42:08;6.10;99.90
7844;DHT22;3967;48.702;9.326;2023-02-03T03:47:37;6.10;99.90
7844;DHT22;3967;48.702;9.326;2023-02-03T03:50:09;6.10;99.90
7844;DHT22;3967;48.702;9.326;2023-02-03T03:52:37;6.10;99.90
7844;DHT22;3967;48.702;9.326;2023-02-03T03:55:07;6.10;99.90
7844;DHT22;3967;48.702;9.326;2023-02-03T03:57:42;6.10;99.90
7844;DHT22;3967;48.702;9.326;2023-02-03T04:00:13;6.10;99.90
7844;DHT22;3967;48.702;9.326;2023-02-03T04:02:45;6.00;99.90
7844;DHT22;3967;48.702;9.326;2023-02-03T04:05:14;6.10;99.90
7844;DHT22;3967;48.702;9.326;2023-02-03T04:07:43;6.20;99.90
7844;DHT22;3967;48.702;9.326;2023-02-03T04:10:33;6.20;99.90
7844;DHT22;3967;48.702;9.326;2023-02-03T04:13:00;6.10;99.90
7844;DHT22;3967;48.702;9.326;2023-02-03T04:15:27;6.20;99.90
7844;DHT22;3967;48.702;9.326;2023-02-03T04:17:54;6.10;99.90
7844;DHT22;3967;48.702;9.326;2023-02-03T04:20:23;6.20;99.90
7844;DHT22;3967;48.702;9.326;2023-02-03T04:22:51;6.20;99.90
7844;DHT22;3967;48.702;9.326;2023-02-03T04:25:18;6.10;99.90
7844;DHT22;3967;48.702;9.326;2023-02-03T04:27:45;6.00;99.90
7844;DHT22;3967;48.702;9.326;2023-02-03T04:30:12;6.10;99.90
7844;DHT22;3967;48.702;9.326;2023-02-03T04:32:46;6.20;99.90
7844;DHT22;3967;48.702;9.326;2023-02-03T04:35:13;6.10;99.90
7844;DHT22;3967;48.702;9.326;2023-02-03T04:37:43;6.10;99.90
7844;DHT22;3967;48.702;9.326;2023-02-03T04:40:10;6.00;99.90
7844;DHT22;3967;48.702;9.326;2023-02-03T04:42:39;6.00;99.90
7844;DHT22;3967;48.702;9.326;2023-02-03T04:45:08;6.00;99.90
7844;DHT22;3967;48.702;9.326;2023-02-03T04:47:35;6.10;99.90
7844;DHT22;3967;48.702;9.326;2023-02-03T04:50:02;6.10;99.90
7844;DHT22;3967;48.702;9.326;2023-02-03T04:52:29;6.00;99.90
7844;DHT22;3967;48.702;9.326;2023-02-03T04:54:55;6.00;99.90
7844;DHT22;3967;48.702;9.326;2023-02-03T04:57:22;5.90;99.90
7844;DHT22;3967;48.702;9.326;2023-02-03T04:59:49;6.00;99.90
7844;DHT22;3967;48.702;9.326;2023-02-03T05:02:16;6.00;99.90
7844;DHT22;3967;48.702;9.326;2023-02-03T05:04:42;6.00;99.90
7844;DHT22;3967;48.702;9.326;2023-02-03T05:07:09;6.00;99.90
7844;DHT22;3967;48.702;9.326;2023-02-03T05:09:36;6.00;99.90
7844;DHT22;3967;48.702;9.326;2023-02-03T05:12:02;6.00;99.90
7844;DHT22;3967;48.702;9.326;2023-02-03T05:14:29;6.00;99.90
7844;DHT22;3967;48.702;9.326;2023-02-03T05:16:56;6.00;99.90
7844;DHT22;3967;48.702;9.326;2023-02-03T05:19:22;6.10;99.90
7844;DHT22;3967;48.702;9.326;2023-02-03T05:21:52;6.00;99.90
7844;DHT22;3967;48.702;9.326;2023-02-03T05:24:18;6.00;99.90
7844;DHT22;3967;48.702;9.326;2023-02-03T05:26:45;6.00;99.90
7844;DHT22;3967;48.702;9.326;2023-02-03T05:29:12;6.00;99.90
7844;DHT22;3967;48.702;9.326;2023-02-03T05:31:38;6.00;99.90
7844;DHT22;3967;48.702;9.326;2023-02-03T05:34:05;5.90;99.90
7844;DHT22;3967;48.702;9.326;2023-02-03T05:36:32;5.90;99.90
7844;DHT22;3967;48.702;9.326;2023-02-03T05:38:59;6.00;99.90
7844;DHT22;3967;48.702;9.326;2023-02-03T05:41:25;5.80;99.90
7844;DHT22;3967;48.702;9.326;2023-02-03T05:44:10;5.80;99.90
7844;DHT22;3967;48.702;9.326;2023-02-03T05:46:37;5.80;99.90
7844;DHT22;3967;48.702;9.326;2023-02-03T05:49:04;5.80;99.90
7844;DHT22;3967;48.702;9.326;2023-02-03T05:51:31;5.90;99.90
7844;DHT22;3967;48.702;9.326;2023-02-03T05:53:57;5.90;99.90
7844;DHT22;3967;48.702;9.326;2023-02-03T05:56:24;5.90;99.90
7844;DHT22;3967;48.702;9.326;2023-02-03T05:58:51;5.90;99.90
7844;DHT22;3967;48.702;9.326;2023-02-03T06:01:19;5.90;99.90
7844;DHT22;3967;48.702;9.326;2023-02-03T06:03:46;6.00;99.90
7844;DHT22;3967;48.702;9.326;2023-02-03T06:06:14;6.00;99.90
7844;DHT22;3967;48.702;9.326;2023-02-03T06:08:42;6.00;99.90
7844;DHT22;3967;48.702;9.326;2023-02-03T06:11:12;6.00;99.90
7844;DHT22;3967;48.702;9.326;2023-02-03T06:13:39;6.00;99.90
7844;DHT22;3967;48.702;9.326;2023-02-03T06:16:06;6.00;99.90
7844;DHT22;3967;48.702;9.326;2023-02-03T06:18:33;6.30;99.90
7844;DHT22;3967;48.702;9.326;2023-02-03T06:21:00;6.20;99.90
7844;DHT22;3967;48.702;9.326;2023-02-03T06:23:27;6.10;99.90
7844;DHT22;3967;48.702;9.326;2023-02-03T06:25:54;6.00;99.90
7844;DHT22;3967;48.702;9.326;2023-02-03T06:28:20;6.00;99.90
7844;DHT22;3967;48.702;9.326;2023-02-03T06:30:50;6.10;99.90
7844;DHT22;3967;48.702;9.326;2023-02-03T06:33:19;6.10;99.90
7844;DHT22;3967;48.702;9.326;2023-02-03T06:35:46;6.00;99.90
7844;DHT22;3967;48.702;9.326;2023-02-03T06:38:12;5.90;99.90
7844;DHT22;3967;48.702;9.326;2023-02-03T06:40:39;5.80;99.90
7844;DHT22;3967;48.702;9.326;2023-02-03T06:43:06;6.00;99.90
7844;DHT22;3967;48.702;9.326;2023-02-03T06:45:32;5.90;99.90
7844;DHT22;3967;48.702;9.326;2023-02-03T06:47:59;5.90;99.90
7844;DHT22;3967;48.702;9.326;2023-02-03T06:50:26;5.80;99.90
7844;DHT22;3967;48.702;9.326;2023-02-03T06:52:53;5.90;99.90
7844;DHT22;3967;48.702;9.326;2023-02-03T06:55:20;5.90;99.90
7844;DHT22;3967;48.702;9.326;2023-02-03T06:57:47;5.90;99.90
7844;DHT22;3967;48.702;9.326;2023-02-03T07:00:15;5.90;99.90
7844;DHT22;3967;48.702;9.326;2023-02-03T07:02:45;5.80;99.90
7844;DHT22;3967;48.702;9.326;2023-02-03T07:05:12;5.80;99.90
7844;DHT22;3967;48.702;9.326;2023-02-03T07:07:39;5.90;99.90
7844;DHT22;3967;48.702;9.326;2023-02-03T07:10:06;5.90;99.90
7844;DHT22;3967;48.702;9.326;2023-02-03T07:12:33;5.80;99.90
7844;DHT22;3967;48.702;9.326;2023-02-03T07:15:03;5.90;99.90
7844;DHT22;3967;48.702;9.326;2023-02-03T07:17:30;5.80;99.90
7844;DHT22;3967;48.702;9.326;2023-02-03T07:19:57;5.80;99.90
7844;DHT22;3967;48.702;9.326;2023-02-03T07:22:24;5.70;99.90
7844;DHT22;3967;48.702;9.326;2023-02-03T07:24:53;5.80;99.90
7844;DHT22;3967;48.702;9.326;2023-02-03T07:27:20;5.80;99.90
7844;DHT22;3967;48.702;9.326;2023-02-03T07:29:46;5.80;99.90
7844;DHT22;3967;48.702;9.326;2023-02-03T07:32:13;5.70;99.90
7844;DHT22;3967;48.702;9.326;2023-02-03T07:34:40;5.60;99.90
7844;DHT22;3967;48.702;9.326;2023-02-03T07:37:07;5.70;99.90
7844;DHT22;3967;48.702;9.326;2023-02-03T07:39:33;5.70;99.90
7844;DHT22;3967;48.702;9.326;2023-02-03T07:42:00;5.70;99.90
7844;DHT22;3967;48.702;9.326;2023-02-03T07:44:27;5.80;99.90
7844;DHT22;3967;48.702;9.326;2023-02-03T07:46:53;5.80;99.90
7844;DHT22;3967;48.702;9.326;2023-02-03T07:49:20;5.80;99.90
7844;DHT22;3967;48.702;9.326;2023-02-03T07:51:47;5.70;99.90
7844;DHT22;3967;48.702;9.326;2023-02-03T07:54:14;5.80;99.90
7844;DHT22;3967;48.702;9.326;2023-02-03T07:56:41;5.90;99.90
7844;DHT22;3967;48.702;9.326;2023-02-03T07:59:08;5.80;99.90
7844;DHT22;3967;48.702;9.326;2023-02-03T08:01:35;5.80;99.90
7844;DHT22;3967;48.702;9.326;2023-02-03T08:04:02;5.80;99.90
7844;DHT22;3967;48.702;9.326;2023-02-03T08:06:30;5.80;99.90
7844;DHT22;3967;48.702;9.326;2023-02-03T08:08:57;5.70;99.90
7844;DHT22;3967;48.702;9.326;2023-02-03T08:11:24;5.80;99.90
7844;DHT22;3967;48.702;9.326;2023-02-03T08:13:51;5.80;99.90
7844;DHT22;3967;48.702;9.326;2023-02-03T08:16:18;5.90;99.90
7844;DHT22;3967;48.702;9.326;2023-02-03T08:18:44;5.80;99.90
7844;DHT22;3967;48.702;9.326;2023-02-03T08:21:11;5.80;99.90
7844;DHT22;3967;48.702;9.326;2023-02-03T08:23:38;5.90;99.90
7844;DHT22;3967;48.702;9.326;2023-02-03T08:26:05;5.90;99.90
7844;DHT22;3967;48.702;9.326;2023-02-03T08:28:31;5.90;99.90
7844;DHT22;3967;48.702;9.326;2023-02-03T08:30:58;5.90;99.90
7844;DHT22;3967;48.702;9.326;2023-02-03T08:33:25;5.90;99.90
7844;DHT22;3967;48.702;9.326;2023-02-03T08:35:52;6.00;99.90
7844;DHT22;3967;48.702;9.326;2023-02-03T08:38:18;5.90;99.90
7844;DHT22;3967;48.702;9.326;2023-02-03T08:40:47;5.90;99.90
7844;DHT22;3967;48.702;9.326;2023-02-03T08:43:14;5.90;99.90
7844;DHT22;3967;48.702;9.326;2023-02-03T08:45:41;6.00;99.90
7844;DHT22;3967;48.702;9.326;2023-02-03T08:48:08;6.00;99.90
7844;DHT22;3967;48.702;9.326;2023-02-03T08:50:35;6.10;99.90
7844;DHT22;3967;48.702;9.326;2023-02-03T08:53:01;5.90;99.90
7844;DHT22;3967;48.702;9.326;2023-02-03T08:55:28;6.00;99.90
7844;DHT22;3967;48.702;9.326;2023-02-03T08:57:55;6.00;99.90
7844;DHT22;3967;48.702;9.326;2023-02-03T09:00:22;6.10;99.90
7844;DHT22;3967;48.702;9.326;2023-02-03T09:02:49;6.10;99.90
7844;DHT22;3967;48.702;9.326;2023-02-03T09:05:16;6.10;99.90
7844;DHT22;3967;48.702;9.326;2023-02-03T09:07:44;6.10;99.90
7844;DHT22;3967;48.702;9.326;2023-02-03T09:10:10;6.00;99.90
7844;DHT22;3967;48.702;9.326;2023-02-03T09:12:37;6.10;99.90
7844;DHT22;3967;48.702;9.326;2023-02-03T09:15:04;6.20;99.90
7844;DHT22;3967;48.702;9.326;2023-02-03T09:17:31;6.20;99.90
7844;DHT22;3967;48.702;9.326;2023-02-03T09:19:58;6.30;99.90
7844;DHT22;3967;48.702;9.326;2023-02-03T09:22:25;6.30;99.90
7844;DHT22;3967;48.702;9.326;2023-02-03T09:24:52;6.20;99.90
7844;DHT22;3967;48.702;9.326;2023-02-03T09:27:18;6.30;99.90
7844;DHT22;3967;48.702;9.326;2023-02-03T09:29:45;6.40;99.90
7844;DHT22;3967;48.702;9.326;2023-02-03T09:32:12;6.50;99.90
7844;DHT22;3967;48.702;9.326;2023-02-03T09:34:41;6.40;99.90
7844;DHT22;3967;48.702;9.326;2023-02-03T09:37:08;6.50;99.90
7844;DHT22;3967;48.702;9.326;2023-02-03T09:39:35;6.50;99.90
7844;DHT22;3967;48.702;9.326;2023-02-03T09:45:00;6.70;99.90
7844;DHT22;3967;48.702;9.326;2023-02-03T09:47:36;6.90;99.90
7844;DHT22;3967;48.702;9.326;2023-02-03T09:50:20;6.90;99.90
7844;DHT22;3967;48.702;9.326;2023-02-03T09:52:48;6.90;99.90
7844;DHT22;3967;48.702;9.326;2023-02-03T10:03:31;6.80;99.90
7844;DHT22;3967;48.702;9.326;2023-02-03T10:06:12;6.90;99.90
7844;DHT22;3967;48.702;9.326;2023-02-03T10:09:35;7.00;99.90
7844;DHT22;3967;48.702;9.326;2023-02-03T10:15:22;7.00;99.90
7844;DHT22;3967;48.702;9.326;2023-02-03T10:17:56;7.00;99.90
7844;DHT22;3967;48.702;9.326;2023-02-03T10:23:10;7.00;99.90
7844;DHT22;3967;48.702;9.326;2023-02-03T10:25:41;6.90;99.90
7844;DHT22;3967;48.702;9.326;2023-02-03T10:28:20;7.00;99.90
7844;DHT22;3967;48.702;9.326;2023-02-03T10:30:55;7.10;99.90
7844;DHT22;3967;48.702;9.326;2023-02-03T10:33:27;7.10;99.90
7844;DHT22;3967;48.702;9.326;2023-02-03T10:41:17;7.10;99.90
7844;DHT22;3967;48.702;9.326;2023-02-03T10:43:49;7.10;99.90
7844;DHT22;3967;48.702;9.326;2023-02-03T10:46:45;7.20;99.90
7844;DHT22;3967;48.702;9.326;2023-02-03T10:49:12;7.10;99.90
7844;DHT22;3967;48.702;9.326;2023-02-03T10:51:50;6.90;99.90
7844;DHT22;3967;48.702;9.326;2023-02-03T10:54:30;7.00;99.90
7844;DHT22;3967;48.702;9.326;2023-02-03T10:57:05;7.10;99.90
7844;DHT22;3967;48.702;9.326;2023-02-03T10:59:34;7.10;99.90
7844;DHT22;3967;48.702;9.326;2023-02-03T11:02:28;7.20;99.90
7844;DHT22;3967;48.702;9.326;2023-02-03T11:07:35;7.30;99.90
7844;DHT22;3967;48.702;9.326;2023-02-03T11:10:02;7.30;99.90
7844;DHT22;3967;48.702;9.326;2023-02-03T11:12:30;7.40;99.90
7844;DHT22;3967;48.702;9.326;2023-02-03T11:15:04;7.60;99.90
7844;DHT22;3967;48.702;9.326;2023-02-03T11:17:34;7.50;99.90
7844;DHT22;3967;48.702;9.326;2023-02-03T11:20:13;7.50;99.90
7844;DHT22;3967;48.702;9.326;2023-02-03T11:22:42;7.60;99.90
7844;DHT22;3967;48.702;9.326;2023-02-03T11:25:22;7.60;99.90
7844;DHT22;3967;48.702;9.326;2023-02-03T11:27:53;7.50;99.90
7844;DHT22;3967;48.702;9.326;2023-02-03T11:30:26;7.50;99.90
7844;DHT22;3967;48.702;9.326;2023-02-03T11:32:59;7.40;99.90
7844;DHT22;3967;48.702;9.326;2023-02-03T11:35:28;7.50;99.90
7844;DHT22;3967;48.702;9.326;2023-02-03T11:37:59;7.40;99.90
7844;DHT22;3967;48.702;9.326;2023-02-03T11:40:31;7.30;99.90
7844;DHT22;3967;48.702;9.326;2023-02-03T11:43:03;7.40;99.90
7844;DHT22;3967;48.702;9.326;2023-02-03T11:45:40;7.20;99.90
7844;DHT22;3967;48.702;9.326;2023-02-03T11:48:36;7.30;99.90
7844;DHT22;3967;48.702;9.326;2023-02-03T11:54:14;7.20;99.90
7844;DHT22;3967;48.702;9.326;2023-02-03T12:02:36;7.40;99.90
7844;DHT22;3967;48.702;9.326;2023-02-03T12:08:20;7.50;99.90
7844;DHT22;3967;48.702;9.326;2023-02-03T12:11:18;7.50;99.90
7844;DHT22;3967;48.702;9.326;2023-02-03T12:16:30;7.40;99.90
7844;DHT22;3967;48.702;9.326;2023-02-03T12:19:03;7.50;99.90
7844;DHT22;3967;48.702;9.326;2023-02-03T12:21:42;7.60;99.90
7844;DHT22;3967;48.702;9.326;2023-02-03T12:29:50;7.60;99.90
7844;DHT22;3967;48.702;9.326;2023-02-03T12:37:50;7.50;99.90
7844;DHT22;3967;48.702;9.326;2023-02-03T12:40:43;7.60;99.90
7844;DHT22;3967;48.702;9.326;2023-02-03T12:54:04;7.70;99.90
7844;DHT22;3967;48.702;9.326;2023-02-03T12:56:38;7.70;99.90
7844;DHT22;3967;48.702;9.326;2023-02-03T12:59:21;7.60;99.90
7844;DHT22;3967;48.702;9.326;2023-02-03T13:01:53;7.60;99.90
7844;DHT22;3967;48.702;9.326;2023-02-03T13:07:03;7.50;99.90
7844;DHT22;3967;48.702;9.326;2023-02-03T13:09:43;7.50;99.90
7844;DHT22;3967;48.702;9.326;2023-02-03T13:12:30;7.50;99.90
7844;DHT22;3967;48.702;9.326;2023-02-03T13:18:21;7.50;99.90
7844;DHT22;3967;48.702;9.326;2023-02-03T13:20:54;7.50;99.90
7844;DHT22;3967;48.702;9.326;2023-02-03T13:23:22;7.50;99.90
7844;DHT22;3967;48.702;9.326;2023-02-03T13:37:19;7.60;99.90
7844;DHT22;3967;48.702;9.326;2023-02-03T13:42:46;7.50;99.90
7844;DHT22;3967;48.702;9.326;2023-02-03T13:45:28;7.40;99.90
7844;DHT22;3967;48.702;9.326;2023-02-03T13:48:18;7.40;99.90
7844;DHT22;3967;48.702;9.326;2023-02-03T13:50:47;7.40;99.90
7844;DHT22;3967;48.702;9.326;2023-02-03T13:53:23;7.50;99.90
7844;DHT22;3967;48.702;9.326;2023-02-03T13:55:52;7.40;99.90
7844;DHT22;3967;48.702;9.326;2023-02-03T13:58:23;7.50;99.90
7844;DHT22;3967;48.702;9.326;2023-02-03T14:05:56;7.50;99.90
7844;DHT22;3967;48.702;9.326;2023-02-03T14:16:44;7.50;99.90
7844;DHT22;3967;48.702;9.326;2023-02-03T14:21:52;7.60;99.90
7844;DHT22;3967;48.702;9.326;2023-02-03T14:24:20;7.50;99.90
7844;DHT22;3967;48.702;9.326;2023-02-03T14:26:50;7.60;99.90
7844;DHT22;3967;48.702;9.326;2023-02-03T14:29:30;7.60;99.90
7844;DHT22;3967;48.702;9.326;2023-02-03T14:32:06;7.60;99.90
7844;DHT22;3967;48.702;9.326;2023-02-03T14:34:35;7.50;99.90
7844;DHT22;3967;48.702;9.326;2023-02-03T14:37:22;7.40;99.90
7844;DHT22;3967;48.702;9.326;2023-02-03T14:48:47;7.50;99.90
7844;DHT22;3967;48.702;9.326;2023-02-03T15:00:06;7.50;99.90
7844;DHT22;3967;48.702;9.326;2023-02-03T15:08:30;7.40;99.90
7844;DHT22;3967;48.702;9.326;2023-02-03T15:13:49;7.40;99.90
7844;DHT22;3967;48.702;9.326;2023-02-03T15:16:21;7.30;99.90
7844;DHT22;3967;48.702;9.326;2023-02-03T15:18:58;7.30;99.90
7844;DHT22;3967;48.702;9.326;2023-02-03T15:21:25;7.40;99.90
7844;DHT22;3967;48.702;9.326;2023-02-03T15:23:53;7.30;99.90
7844;DHT22;3967;48.702;9.326;2023-02-03T15:26:24;7.30;99.90
7844;DHT22;3967;48.702;9.326;2023-02-03T15:29:02;7.30;99.90
7844;DHT22;3967;48.702;9.326;2023-02-03T15:34:29;7.20;99.90
7844;DHT22;3967;48.702;9.326;2023-02-03T15:37:04;7.20;99.90
7844;DHT22;3967;48.702;9.326;2023-02-03T15:39:44;7.10;99.90
7844;DHT22;3967;48.702;9.326;2023-02-03T15:42:19;7.20;99.90
7844;DHT22;3967;48.702;9.326;2023-02-03T15:47:40;7.10;99.90
7844;DHT22;3967;48.702;9.326;2023-02-03T15:53:14;7.20;99.90
7844;DHT22;3967;48.702;9.326;2023-02-03T15:55:48;7.20;99.90
7844;DHT22;3967;48.702;9.326;2023-02-03T15:58:17;7.20;99.90
7844;DHT22;3967;48.702;9.326;2023-02-03T16:00:57;7.20;99.90
7844;DHT22;3967;48.702;9.326;2023-02-03T16:03:37;7.10;99.90
7844;DHT22;3967;48.702;9.326;2023-02-03T16:06:52;7.20;99.90
7844;DHT22;3967;48.702;9.326;2023-02-03T16:08:57;7.20;99.90
7844;DHT22;3967;48.702;9.326;2023-02-03T16:11:33;7.20;99.90
7844;DHT22;3967;48.702;9.326;2023-02-03T16:14:05;7.20;99.90
7844;DHT22;3967;48.702;9.326;2023-02-03T16:16:34;7.20;99.90
7844;DHT22;3967;48.702;9.326;2023-02-03T16:19:20;7.20;99.90
7844;DHT22;3967;48.702;9.326;2023-02-03T16:29:46;7.20;99.90
7844;DHT22;3967;48.702;9.326;2023-02-03T16:32:32;7.20;99.90
7844;DHT22;3967;48.702;9.326;2023-02-03T16:35:17;7.20;99.90
7844;DHT22;3967;48.702;9.326;2023-02-03T16:38:15;7.20;99.90
7844;DHT22;3967;48.702;9.326;2023-02-03T16:41:00;7.20;99.90
7844;DHT22;3967;48.702;9.326;2023-02-03T16:43:47;7.20;99.90
7844;DHT22;3967;48.702;9.326;2023-02-03T16:46:33;7.10;99.90
7844;DHT22;3967;48.702;9.326;2023-02-03T16:49:18;7.10;99.90
7844;DHT22;3967;48.702;9.326;2023-02-03T16:52:04;7.00;99.90
7844;DHT22;3967;48.702;9.326;2023-02-03T16:54:31;7.00;99.90
7844;DHT22;3967;48.702;9.326;2023-02-03T16:56:58;7.00;99.90
7844;DHT22;3967;48.702;9.326;2023-02-03T16:59:25;7.00;99.90
7844;DHT22;3967;48.702;9.326;2023-02-03T17:01:51;7.10;99.90
7844;DHT22;3967;48.702;9.326;2023-02-03T17:04:18;7.10;99.90
7844;DHT22;3967;48.702;9.326;2023-02-03T17:06:45;7.10;99.90
7844;DHT22;3967;48.702;9.326;2023-02-03T17:09:17;7.00;99.90
7844;DHT22;3967;48.702;9.326;2023-02-03T17:11:49;7.00;99.90
7844;DHT22;3967;48.702;9.326;2023-02-03T17:14:16;7.00;99.90
7844;DHT22;3967;48.702;9.326;2023-02-03T17:16:43;7.00;99.90
7844;DHT22;3967;48.702;9.326;2023-02-03T17:19:10;7.00;99.90
7844;DHT22;3967;48.702;9.326;2023-02-03T17:21:40;7.10;99.90
7844;DHT22;3967;48.702;9.326;2023-02-03T17:24:07;7.10;99.90
7844;DHT22;3967;48.702;9.326;2023-02-03T17:26:33;7.10;99.90
7844;DHT22;3967;48.702;9.326;2023-02-03T17:29:00;7.10;99.90
7844;DHT22;3967;48.702;9.326;2023-02-03T17:31:30;7.10;99.90
7844;DHT22;3967;48.702;9.326;2023-02-03T17:33:57;7.00;99.90
7844;DHT22;3967;48.702;9.326;2023-02-03T17:36:24;7.00;99.90
7844;DHT22;3967;48.702;9.326;2023-02-03T17:38:53;7.00;99.90
7844;DHT22;3967;48.702;9.326;2023-02-03T17:41:40;7.10;99.90
7844;DHT22;3967;48.702;9.326;2023-02-03T17:44:25;7.10;99.90
7844;DHT22;3967;48.702;9.326;2023-02-03T17:47:10;7.00;99.90
7844;DHT22;3967;48.702;9.326;2023-02-03T17:49:54;7.00;99.90
7844;DHT22;3967;48.702;9.326;2023-02-03T17:52:38;7.00;99.90
7844;DHT22;3967;48.702;9.326;2023-02-03T17:55:22;7.10;99.90
7844;DHT22;3967;48.702;9.326;2023-02-03T17:57:49;7.00;99.90
7844;DHT22;3967;48.702;9.326;2023-02-03T18:00:16;7.00;99.90
7844;DHT22;3967;48.702;9.326;2023-02-03T18:02:43;7.10;99.90
7844;DHT22;3967;48.702;9.326;2023-02-03T18:05:10;7.00;99.90
7844;DHT22;3967;48.702;9.326;2023-02-03T18:07:37;7.10;99.90
7844;DHT22;3967;48.702;9.326;2023-02-03T18:10:04;7.10;99.90
7844;DHT22;3967;48.702;9.326;2023-02-03T18:12:31;7.10;99.90
7844;DHT22;3967;48.702;9.326;2023-02-03T18:14:57;7.10;99.90
7844;DHT22;3967;48.702;9.326;2023-02-03T18:17:24;7.10;99.90
7844;DHT22;3967;48.702;9.326;2023-02-03T18:19:51;7.00;99.90
7844;DHT22;3967;48.702;9.326;2023-02-03T18:22:22;7.00;99.90
7844;DHT22;3967;48.702;9.326;2023-02-03T18:24:49;7.00;99.90
7844;DHT22;3967;48.702;9.326;2023-02-03T18:27:20;7.00;99.90
7844;DHT22;3967;48.702;9.326;2023-02-03T18:29:47;7.10;99.90
7844;DHT22;3967;48.702;9.326;2023-02-03T18:32:15;7.10;99.90
7844;DHT22;3967;48.702;9.326;2023-02-03T18:34:42;7.10;99.90
7844;DHT22;3967;48.702;9.326;2023-02-03T18:37:09;7.10;99.90
7844;DHT22;3967;48.702;9.326;2023-02-03T18:39:36;7.00;99.90
7844;DHT22;3967;48.702;9.326;2023-02-03T18:42:03;7.00;99.90
7844;DHT22;3967;48.702;9.326;2023-02-03T18:44:32;7.00;99.90
7844;DHT22;3967;48.702;9.326;2023-02-03T18:46:59;7.10;99.90
7844;DHT22;3967;48.702;9.326;2023-02-03T18:49:36;7.10;99.90
7844;DHT22;3967;48.702;9.326;2023-02-03T18:52:03;7.10;99.90
7844;DHT22;3967;48.702;9.326;2023-02-03T18:54:30;7.00;99.90
7844;DHT22;3967;48.702;9.326;2023-02-03T18:56:57;7.00;99.90
7844;DHT22;3967;48.702;9.326;2023-02-03T18:59:24;7.00;99.90
7844;DHT22;3967;48.702;9.326;2023-02-03T19:01:51;7.00;99.90
7844;DHT22;3967;48.702;9.326;2023-02-03T19:04:18;7.00;99.90
7844;DHT22;3967;48.702;9.326;2023-02-03T19:06:45;6.90;99.90
7844;DHT22;3967;48.702;9.326;2023-02-03T19:09:13;6.90;99.90
7844;DHT22;3967;48.702;9.326;2023-02-03T19:11:42;7.00;99.90
7844;DHT22;3967;48.702;9.326;2023-02-03T19:14:11;7.00;99.90
7844;DHT22;3967;48.702;9.326;2023-02-03T19:16:39;6.90;99.90
7844;DHT22;3967;48.702;9.326;2023-02-03T19:19:06;6.90;99.90
7844;DHT22;3967;48.702;9.326;2023-02-03T19:21:33;6.80;99.90
7844;DHT22;3967;48.702;9.326;2023-02-03T19:24:00;6.80;99.90
7844;DHT22;3967;48.702;9.326;2023-02-03T19:26:27;6.80;99.90
7844;DHT22;3967;48.702;9.326;2023-02-03T19:28:54;6.80;99.90
7844;DHT22;3967;48.702;9.326;2023-02-03T19:31:21;6.90;99.90